Time;durP1;ratioP1;P1;durP2;ratioP2;P2;SDS_P1;SDS_P2;PMS_P1;PMS_P2;Temp;Humidity;BMP_temperature;BMP_pressure;BME280_temperature;BME280_humidity;BME280_pressure;Samples;Min_cycle;Max_cycle;Signal;HPM_P1;HPM_P2
2021/05/09 10:31:51;;;;;;;2.70;1.70;;;;;;;14.04;36.54;100828.11;1765469;79;21241;-77
2021/05/09 10:34:41;;;;;;;2.20;1.50;;;;;;;14.32;37.50;100827.88;1771111;79;21496;-78
2021/05/09 10:37:08;;;;;;;2.85;1.10;;;;;;;14.62;35.75;100827.49;1734553;81;21451;-77
2021/05/09 10:39:36;;;;;;;2.02;1.27;;;;;;;14.78;35.16;100829.14;1745021;81;21171;-78
2021/05/09 10:42:15;;;;;;;2.45;1.17;;;;;;;14.82;35.55;100825.22;1719324;80;22139;-79
2021/05/09 10:44:47;;;;;;;10.55;1.80;;;;;;;14.88;34.89;100831.33;1762446;81;21123;-82
2021/05/09 10:47:19;;;;;;;1.25;1.00;;;;;;;14.84;35.09;100832.56;1765522;80;21136;-79
2021/05/09 10:50:21;;;;;;;3.92;0.85;;;;;;;14.68;35.01;100826.12;1757993;80;21646;-77
2021/05/09 10:52:48;;;;;;;2.08;1.27;;;;;;;14.45;34.63;100833.46;1750924;81;21519;-79
2021/05/09 10:55:41;;;;;;;2.25;1.32;;;;;;;14.08;35.84;100851.25;1760364;81;22066;-78
2021/05/09 10:58:14;;;;;;;1.87;1.30;;;;;;;14.06;36.76;100852.36;1736126;80;21586;-78
2021/05/09 11:01:02;;;;;;;1.50;1.30;;;;;;;14.04;36.71;100850.69;1732863;81;20986;-78
2021/05/09 11:03:41;;;;;;;2.70;1.30;;;;;;;14.16;36.54;100855.42;1761403;80;21154;-79
2021/05/09 11:06:27;;;;;;;4.30;1.62;;;;;;;14.39;37.63;100849.45;1736126;80;21149;-78
2021/05/09 11:09:02;;;;;;;4.87;2.30;;;;;;;14.78;35.18;100846.43;1683185;85;22082;-79
2021/05/09 11:11:37;;;;;;;4.55;2.15;;;;;;;15.09;34.33;100844.50;1702033;83;21248;-79
2021/05/09 11:14:11;;;;;;;2.90;1.60;;;;;;;15.22;33.66;100840.22;1735208;82;21125;-81
2021/05/09 11:16:46;;;;;;;7.62;3.42;;;;;;;15.36;35.46;100834.98;1733746;82;21229;-77
2021/05/09 11:19:16;;;;;;;6.35;1.55;;;;;;;15.62;33.65;100840.56;1736771;82;27400;-79
2021/05/09 11:21:48;;;;;;;1.82;1.30;;;;;;;15.55;32.65;100829.63;1707061;82;23650;-80
2021/05/09 11:24:23;;;;;;;1.65;1.20;;;;;;;15.27;33.71;100839.32;1714976;82;21220;-81
2021/05/09 11:26:53;;;;;;;1.15;1.02;;;;;;;15.06;35.20;100839.46;1718600;83;21193;-83
2021/05/09 11:29:28;;;;;;;2.20;1.40;;;;;;;15.17;34.92;100847.30;1717348;83;21483;-84
2021/05/09 11:32:11;;;;;;;3.77;1.32;;;;;;;15.30;33.72;100835.53;1718059;83;21145;-85
2021/05/09 11:34:39;;;;;;;1.82;1.00;;;;;;;15.41;36.36;100837.55;1707437;83;22048;-82
2021/05/09 11:37:06;;;;;;;2.52;0.90;;;;;;;15.43;33.01;100831.58;1748185;80;21662;-84
2021/05/09 11:39:37;;;;;;;1.47;0.95;;;;;;;15.04;34.13;100850.71;1763821;81;21164;-83
2021/05/09 11:42:09;;;;;;;3.55;1.05;;;;;;;14.75;33.24;100847.17;1764072;80;21207;-83
2021/05/09 11:44:48;;;;;;;2.30;1.20;;;;;;;14.49;33.44;100841.05;1753781;81;21183;-83
2021/05/09 11:47:29;;;;;;;3.22;0.95;;;;;;;14.25;34.62;100833.36;1750427;81;22521;-83
2021/05/09 11:50:07;;;;;;;1.53;0.90;;;;;;;14.41;35.17;100849.30;1744138;81;21683;-85
2021/05/09 11:52:43;;;;;;;1.30;1.00;;;;;;;14.69;33.82;100830.45;1747916;81;21210;-82
2021/05/09 11:55:14;;;;;;;2.33;0.98;;;;;;;14.95;33.84;100822.77;1747710;81;21208;-85
2021/05/09 11:57:42;;;;;;;1.72;0.95;;;;;;;15.17;34.96;100834.00;1728337;81;21521;-86
2021/05/09 12:00:15;;;;;;;1.47;1.12;;;;;;;15.47;34.76;100830.83;1749346;81;22056;-87
2021/05/09 12:02:45;;;;;;;1.57;1.00;;;;;;;15.70;32.31;100840.69;1750415;81;28936;-85
2021/05/09 12:05:20;;;;;;;2.52;1.00;;;;;;;15.54;33.44;100827.95;1745828;81;21215;-85
2021/05/09 12:07:51;;;;;;;1.50;0.80;;;;;;;15.68;33.47;100832.84;1751273;81;21631;-84
2021/05/09 12:10:34;;;;;;;0.90;0.90;;;;;;;15.89;31.91;100825.98;1743961;81;21448;-83
2021/05/09 12:13:06;;;;;;;2.45;1.20;;;;;;;16.05;32.13;100843.20;1749726;81;22068;-84
2021/05/09 12:15:38;;;;;;;;;;;;;;;16.04;32.35;100827.70;1730017;81;21096;-86
2021/05/09 12:18:07;;;;;;;1.55;1.00;;;;;;;15.97;31.07;100831.44;1750330;81;20208;-84
2021/05/09 12:20:45;;;;;;;1.25;0.88;;;;;;;15.90;32.09;100828.16;1749568;81;21084;-86
2021/05/09 12:23:22;;;;;;;0.75;0.70;;;;;;;16.12;34.11;100829.15;1752274;81;21163;-84
2021/05/09 12:25:50;;;;;;;1.35;1.12;;;;;;;16.42;31.82;100821.36;1746027;80;22051;-84
2021/05/09 12:28:30;;;;;;;1.20;1.05;;;;;;;16.37;30.21;100819.63;1745529;81;21184;-84
2021/05/09 12:31:10;;;;;;;0.90;0.70;;;;;;;16.30;32.38;100819.36;1751191;81;21123;-83
2021/05/09 12:33:37;;;;;;;1.60;0.90;;;;;;;16.63;30.21;100823.76;1763517;80;21356;-84
2021/05/09 12:36:17;;;;;;;1.25;0.80;;;;;;;16.84;31.62;100816.34;1765841;80;21141;-84
2021/05/09 12:38:44;;;;;;;3.92;1.10;;;;;;;17.03;30.80;100823.86;1712952;83;22975;-85
2021/05/09 12:41:13;;;;;;;2.47;1.80;;;;;;;17.03;29.71;100824.70;1731888;82;21132;-84
2021/05/09 12:43:45;;;;;;;2.05;0.93;;;;;;;17.07;29.76;100822.55;1761142;80;21166;-85
2021/05/09 12:46:42;;;;;;;1.52;0.98;;;;;;;17.15;29.75;100827.97;1761220;80;21175;-86
2021/05/09 12:49:14;;;;;;;1.72;1.00;;;;;;;17.20;28.81;100822.19;1745375;80;21494;-84
2021/05/09 12:54:43;;;;;;;1.32;1.00;;;;;;;17.51;29.09;100831.45;1879516;74;22724;-84
2021/05/09 12:57:25;;;;;;;1.35;1.17;;;;;;;17.51;29.57;100834.12;1853645;75;21093;-86
2021/05/09 13:00:09;;;;;;;1.52;0.90;;;;;;;17.72;29.43;100839.97;1853483;76;22028;-83
2021/05/09 13:02:46;;;;;;;1.82;1.10;;;;;;;17.78;28.60;100835.84;1753664;79;21075;-85
2021/05/09 13:05:25;;;;;;;1.32;1.00;;;;;;;17.66;29.58;100839.25;1811057;78;21114;-85
2021/05/09 13:07:53;;;;;;;4.15;1.00;;;;;;;17.79;29.59;100842.86;1815563;78;21133;-85
2021/05/09 13:10:23;;;;;;;1.37;1.00;;;;;;;17.89;28.91;100834.24;1798203;78;21078;-86
2021/05/09 13:12:53;;;;;;;4.37;1.20;;;;;;;17.88;28.25;100825.05;1751509;80;22053;-86
2021/05/09 13:15:21;;;;;;;1.27;1.15;;;;;;;17.82;30.44;100829.68;1756989;80;21086;-85
2021/05/09 13:17:51;;;;;;;1.20;1.10;;;;;;;17.99;28.27;100818.09;1761441;79;21069;-83
2021/05/09 13:20:20;;;;;;;1.25;0.80;;;;;;;18.05;29.56;100830.84;1769964;79;21550;-83
2021/05/09 13:22:48;;;;;;;1.57;1.07;;;;;;;18.29;28.23;100820.73;1769003;79;21630;-83
2021/05/09 13:25:17;;;;;;;1.60;0.85;;;;;;;18.28;28.39;100826.59;1762723;79;21898;-77
2021/05/09 13:27:45;;;;;;;1.42;0.90;;;;;;;18.28;27.85;100831.10;1773923;79;21117;-80
2021/05/09 13:30:16;;;;;;;1.60;0.90;;;;;;;18.23;27.76;100831.56;1764345;79;21251;-77
2021/05/09 13:32:43;;;;;;;1.82;0.80;;;;;;;18.20;28.04;100835.06;1773612;79;21147;-79
2021/05/09 13:35:11;;;;;;;1.82;0.98;;;;;;;18.25;27.25;100836.78;1756482;79;21032;-78
2021/05/09 13:37:39;;;;;;;1.95;1.15;;;;;;;18.11;27.76;100840.03;1769810;80;22026;-82
2021/05/09 13:40:07;;;;;;;2.33;1.00;;;;;;;18.13;29.27;100837.53;1757257;80;21187;-83
2021/05/09 13:42:35;;;;;;;3.17;1.00;;;;;;;18.32;27.48;100832.45;1760519;80;21109;-82
2021/05/09 13:45:04;;;;;;;1.32;1.00;;;;;;;18.29;27.07;100843.47;1761413;79;21173;-86
2021/05/09 13:47:32;;;;;;;0.98;0.75;;;;;;;18.13;27.59;100849.56;1774527;79;21050;-84
2021/05/09 13:50:02;;;;;;;1.45;0.80;;;;;;;18.25;26.96;100847.48;1762864;79;23398;-83
2021/05/09 13:52:31;;;;;;;1.05;0.90;;;;;;;18.26;27.69;100839.29;1774179;79;21666;-85
2021/05/09 13:54:58;;;;;;;2.12;1.05;;;;;;;18.35;27.64;100838.83;1758172;80;21060;-83
2021/05/09 13:57:25;;;;;;;1.22;0.90;;;;;;;18.56;28.99;100841.91;1755946;80;21086;-85
2021/05/09 13:59:54;;;;;;;1.22;0.90;;;;;;;18.78;27.69;100839.66;1754329;80;21414;-88
2021/05/09 14:02:21;;;;;;;1.12;1.00;;;;;;;18.88;26.03;100833.16;1749313;80;23414;-84
2021/05/09 14:04:50;;;;;;;2.60;1.20;;;;;;;18.91;26.34;100854.73;1746950;80;21490;-82
2021/05/09 14:07:17;;;;;;;1.10;1.00;;;;;;;18.86;26.12;100847.20;1747858;80;21127;-81
2021/05/09 14:09:45;;;;;;;3.45;1.50;;;;;;;18.76;25.45;100846.52;1742819;80;21130;-79
2021/05/09 14:12:13;;;;;;;3.25;1.65;;;;;;;18.50;26.19;100844.39;1743112;80;21175;-78
2021/05/09 14:14:42;;;;;;;2.60;1.60;;;;;;;18.38;26.97;100857.72;1715665;81;22065;-79
2021/05/09 14:17:09;;;;;;;2.10;1.72;;;;;;;18.19;27.01;100852.11;1748671;80;20952;-79
2021/05/09 14:19:37;;;;;;;1.52;1.42;;;;;;;17.85;26.96;100865.43;1751332;80;21153;-79
2021/05/09 14:22:04;;;;;;;1.30;1.00;;;;;;;17.48;27.50;100858.47;1749671;80;21131;-79
2021/05/09 14:24:32;;;;;;;1.52;1.10;;;;;;;17.26;27.62;100858.92;1746642;80;21652;-79
2021/05/09 14:27:00;;;;;;;2.70;1.15;;;;;;;17.14;28.03;100855.16;1748795;80;22051;-80
2021/05/09 14:29:28;;;;;;;2.62;0.98;;;;;;;17.36;28.67;100857.02;1748752;80;21216;-77
2021/05/09 14:31:56;;;;;;;1.27;0.95;;;;;;;17.62;27.75;100857.91;1750434;80;21133;-77
2021/05/09 14:34:23;;;;;;;1.22;0.90;;;;;;;17.72;26.43;100855.16;1748177;80;21182;-77
2021/05/09 14:36:55;;;;;;;1.20;1.00;;;;;;;17.83;27.43;100841.55;1748946;80;21059;-76
2021/05/09 14:39:22;;;;;;;1.60;1.20;;;;;;;18.07;26.74;100848.88;1747507;80;21889;-77
2021/05/09 14:41:50;;;;;;;1.72;0.90;;;;;;;18.09;27.16;100850.06;1752152;80;21685;-77
2021/05/09 14:44:18;;;;;;;1.10;0.93;;;;;;;18.23;26.92;100856.97;1749342;80;21162;-76
2021/05/09 14:46:45;;;;;;;1.95;1.00;;;;;;;18.41;26.88;100864.08;1755214;80;21168;-77
2021/05/09 14:49:13;;;;;;;0.80;0.80;;;;;;;18.45;25.65;100845.39;1748079;80;21136;-79
2021/05/09 14:51:41;;;;;;;1.37;0.90;;;;;;;18.54;26.02;100853.78;1746629;80;23553;-79
2021/05/09 14:54:09;;;;;;;1.75;1.00;;;;;;;18.41;25.67;100845.35;1751954;80;21111;-80
2021/05/09 14:56:36;;;;;;;1.77;1.00;;;;;;;18.31;25.29;100853.00;1752420;80;21161;-78
2021/05/09 14:59:04;;;;;;;1.15;0.70;;;;;;;18.32;25.52;100860.52;1758621;80;21116;-81
2021/05/09 15:01:31;;;;;;;1.55;1.00;;;;;;;18.32;25.19;100849.83;1761793;80;21555;-81
2021/05/09 15:03:59;;;;;;;2.55;1.10;;;;;;;18.24;26.05;100862.69;1756238;79;22951;-84
2021/05/09 15:06:27;;;;;;;1.10;1.00;;;;;;;18.28;25.40;100862.69;1770986;79;21129;-81
2021/05/09 15:08:58;;;;;;;1.77;1.05;;;;;;;18.25;25.99;100861.68;1761387;80;21113;-86
2021/05/09 15:11:26;;;;;;;1.67;1.10;;;;;;;18.47;26.25;100860.77;1762500;81;21142;-88
2021/05/09 15:13:54;;;;;;;1.15;1.05;;;;;;;18.77;25.77;100864.75;1750621;80;21078;-87
2021/05/09 15:16:25;;;;;;;2.30;0.95;;;;;;;18.65;24.81;100876.76;1764760;80;21159;-88
2021/05/09 15:18:53;;;;;;;2.30;1.22;;;;;;;18.43;25.64;100876.31;1777515;79;21173;-71
2021/05/09 15:21:20;;;;;;;2.00;0.80;;;;;;;18.44;25.77;100876.65;1772320;80;21324;-75
2021/05/09 15:23:50;;;;;;;1.55;0.95;;;;;;;18.45;25.77;100870.30;1752207;79;21334;-81
2021/05/09 15:26:20;;;;;;;2.00;1.10;;;;;;;18.45;25.93;100883.67;1759398;80;21168;-84
2021/05/09 15:28:49;;;;;;;1.90;1.00;;;;;;;18.56;25.89;100877.19;1761618;79;22578;-84
2021/05/09 15:31:17;;;;;;;1.67;1.00;;;;;;;18.47;25.57;100888.85;1763934;80;21191;-86
2021/05/09 15:33:45;;;;;;;2.33;1.15;;;;;;;18.31;26.91;100880.24;1783882;79;21453;-82
2021/05/09 15:36:15;;;;;;;0.98;0.78;;;;;;;18.48;26.01;100882.00;1755436;80;21166;-82
2021/05/09 15:38:43;;;;;;;2.58;1.02;;;;;;;18.46;25.50;100869.30;1769283;79;21217;-78
2021/05/09 15:41:13;;;;;;;2.08;1.30;;;;;;;18.27;26.29;100885.08;1783896;80;21479;-82
2021/05/09 15:43:42;;;;;;;1.02;0.90;;;;;;;18.22;26.69;100893.23;1772619;79;21309;-80
2021/05/09 15:46:10;;;;;;;1.00;0.90;;;;;;;18.31;25.56;100888.27;1760949;79;21111;-73
2021/05/09 15:48:37;;;;;;;1.87;1.00;;;;;;;18.14;25.62;100894.02;1766082;80;21069;-83
2021/05/09 15:51:05;;;;;;;1.55;1.00;;;;;;;17.82;25.82;100899.16;1765704;79;21112;-83
2021/05/09 15:53:34;;;;;;;1.32;1.02;;;;;;;17.64;26.45;100901.31;1749994;80;22172;-82
2021/05/09 15:56:02;;;;;;;1.15;0.72;;;;;;;17.73;26.53;100905.77;1754767;79;21103;-86
2021/05/09 15:58:30;;;;;;;1.60;1.10;;;;;;;17.73;26.10;100904.43;1755443;79;21052;-82
2021/05/09 16:00:58;;;;;;;1.10;0.80;;;;;;;17.61;26.68;100907.48;1747697;80;21163;-85
2021/05/09 16:03:25;;;;;;;1.35;0.98;;;;;;;17.45;26.27;100902.83;1757645;80;21104;-80
2021/05/09 16:05:53;;;;;;;1.40;0.80;;;;;;;17.35;26.91;100898.90;1747295;80;22113;-81
2021/05/09 16:08:20;;;;;;;1.62;0.80;;;;;;;17.46;27.33;100904.50;1749122;80;21188;-82
2021/05/09 16:10:49;;;;;;;2.00;0.95;;;;;;;17.56;26.76;100903.08;1744164;80;21080;-83
2021/05/09 16:13:17;;;;;;;1.92;0.93;;;;;;;17.49;27.07;100904.21;1748308;80;21294;-83
2021/05/09 16:15:46;;;;;;;1.80;1.00;;;;;;;17.45;27.54;100902.33;1753493;80;21207;-85
2021/05/09 16:18:13;;;;;;;2.52;1.20;;;;;;;17.50;27.35;100907.22;1748197;80;22134;-80
2021/05/09 16:20:41;;;;;;;5.45;1.40;;;;;;;17.62;27.78;100899.80;1752658;80;21127;-82
2021/05/09 16:23:09;;;;;;;1.10;0.90;;;;;;;17.75;27.84;100904.27;1748749;80;21428;-76
2021/05/09 16:25:36;;;;;;;2.37;1.37;;;;;;;17.72;26.79;100909.44;1748424;80;21156;-75
2021/05/09 16:28:04;;;;;;;3.12;0.98;;;;;;;17.52;27.21;100913.24;1750420;81;21120;-75
2021/05/09 16:30:34;;;;;;;1.42;1.00;;;;;;;17.37;27.32;100912.09;1750790;80;21588;-71
2021/05/09 16:33:01;;;;;;;6.17;1.77;;;;;;;17.22;27.38;100922.97;1746891;81;21176;-76
2021/05/09 16:35:28;;;;;;;2.22;0.90;;;;;;;17.03;27.90;100920.77;1773238;79;21180;-76
2021/05/09 16:37:56;;;;;;;2.52;1.05;;;;;;;16.94;27.83;100925.67;1745016;82;21192;-75
2021/05/09 16:40:23;;;;;;;1.25;0.88;;;;;;;16.89;27.49;100923.97;1760162;80;21187;-76
2021/05/09 16:42:52;;;;;;;0.95;0.90;;;;;;;16.85;28.16;100923.90;1760065;80;23373;-75
2021/05/09 16:45:20;;;;;;;1.10;1.00;;;;;;;16.72;27.95;100928.75;1758852;80;21182;-75
2021/05/09 16:47:47;;;;;;;3.27;1.17;;;;;;;16.40;28.53;100935.29;1737418;80;21180;-76
2021/05/09 16:50:15;;;;;;;2.00;1.30;;;;;;;16.13;29.50;100929.43;1786923;79;21191;-77
2021/05/09 16:52:48;;;;;;;2.10;1.07;;;;;;;15.96;29.73;100932.83;1748316;81;21611;-76
2021/05/09 16:55:13;;;;;;;1.50;1.20;;;;;;;15.75;30.30;100935.66;1748839;80;22044;-74
2021/05/09 16:57:40;;;;;;;2.20;1.07;;;;;;;15.59;30.68;100934.85;1770702;78;21160;-74
2021/05/09 17:00:11;;;;;;;5.30;1.40;;;;;;;15.49;30.61;100936.67;1796615;79;21183;-75
2021/05/09 17:02:38;;;;;;;4.20;1.62;;;;;;;15.40;32.01;100937.02;1782535;79;21183;-75
2021/05/09 17:05:06;;;;;;;2.85;1.20;;;;;;;15.27;32.53;100940.45;1784125;80;21172;-75
2021/05/09 17:07:34;;;;;;;1.87;1.10;;;;;;;15.10;33.36;100940.62;1784098;80;22055;-75
2021/05/09 17:10:03;;;;;;;2.92;1.27;;;;;;;14.96;33.87;100942.36;1757371;79;21641;-76
2021/05/09 17:12:31;;;;;;;1.85;1.12;;;;;;;14.83;34.78;100945.24;1799394;79;21225;-76
2021/05/09 17:15:00;;;;;;;2.95;1.20;;;;;;;14.60;34.41;100959.23;1781932;79;21484;-74
2021/05/09 17:17:28;;;;;;;4.45;1.30;;;;;;;14.41;35.08;100956.94;1781544;79;21157;-73
2021/05/09 17:19:56;;;;;;;4.08;1.20;;;;;;;14.19;36.42;100954.80;1789546;79;23061;-73
2021/05/09 17:22:24;;;;;;;2.12;1.30;;;;;;;14.02;38.30;100955.39;1789883;79;21193;-73
2021/05/09 17:24:55;;;;;;;2.60;1.20;;;;;;;13.78;39.89;100962.25;1775862;79;21160;-75
2021/05/09 17:27:21;;;;;;;2.62;1.37;;;;;;;13.51;40.86;100957.91;1768120;79;21612;-76
2021/05/09 17:29:49;;;;;;;6.37;4.10;;;;;;;13.30;41.68;100970.64;1761349;79;21109;-81
2021/05/09 17:32:16;;;;;;;7.20;4.50;;;;;;;13.05;41.98;100974.41;1780351;79;22123;-78
2021/05/09 17:34:44;;;;;;;5.90;4.20;;;;;;;12.75;42.36;100981.67;1776491;79;21165;-74
2021/05/09 17:37:11;;;;;;;7.37;2.92;;;;;;;12.50;42.67;100977.92;1741115;80;21172;-77
2021/05/09 17:39:39;;;;;;;2.37;1.90;;;;;;;12.27;42.71;100983.69;1780406;79;21172;-75
2021/05/09 17:42:08;;;;;;;6.33;1.67;;;;;;;12.06;43.40;100992.76;1770073;79;21480;-74
2021/05/09 17:44:36;;;;;;;6.65;1.98;;;;;;;11.83;43.60;100995.82;1781777;80;21847;-75
2021/05/09 17:47:03;;;;;;;5.33;2.77;;;;;;;11.62;43.81;100996.91;1785435;80;21618;-76
2021/05/09 17:49:31;;;;;;;6.08;2.83;;;;;;;11.41;44.82;101004.62;1775163;79;21156;-76
2021/05/09 17:52:00;;;;;;;5.50;2.20;;;;;;;11.23;45.28;101008.59;1806848;79;21659;-74
2021/05/09 17:54:28;;;;;;;3.98;1.60;;;;;;;11.02;45.31;101015.42;1767728;81;21176;-74
2021/05/09 17:56:55;;;;;;;2.62;1.60;;;;;;;10.87;46.03;101018.19;1767766;81;22500;-76
2021/05/09 17:59:22;;;;;;;3.33;1.87;;;;;;;10.71;46.67;101023.31;1788074;79;21178;-75
2021/05/09 18:01:50;;;;;;;4.67;2.40;;;;;;;10.55;47.24;101028.36;1806004;78;21167;-76
2021/05/09 18:04:18;;;;;;;3.80;2.35;;;;;;;10.43;47.61;101029.21;1762653;79;21595;-76
2021/05/09 18:06:46;;;;;;;6.67;2.92;;;;;;;10.30;47.96;101036.25;1802848;79;21203;-76
2021/05/09 18:09:15;;;;;;;4.20;2.98;;;;;;;10.14;48.39;101042.19;1777885;79;22502;-74
2021/05/09 18:11:43;;;;;;;10.35;4.55;;;;;;;10.01;47.75;101039.50;1745438;80;21218;-75
2021/05/09 18:14:11;;;;;;;14.30;8.00;;;;;;;9.97;48.16;101040.66;1772535;80;21195;-75
2021/05/09 18:16:48;;;;;;;14.87;9.05;;;;;;;9.87;48.76;101040.89;1774684;79;21162;-74
2021/05/09 18:24:40;;;;;;;7.62;4.92;;;;;;;9.44;50.26;101042.34;1802665;78;21199;-76
2021/05/09 18:27:13;;;;;;;9.43;5.12;;;;;;;9.33;50.20;101046.14;1793902;78;21731;-76
2021/05/09 18:29:42;;;;;;;7.17;4.80;;;;;;;9.23;50.91;101048.98;1761098;80;21180;-76
2021/05/09 18:32:10;;;;;;;5.28;3.55;;;;;;;9.12;51.45;101047.88;1789538;78;21168;-75
2021/05/09 18:34:37;;;;;;;4.05;3.00;;;;;;;9.01;51.61;101053.44;1757518;81;22061;-74
2021/05/09 18:37:06;;;;;;;4.83;2.75;;;;;;;8.89;51.66;101050.63;1793635;79;21735;-73
2021/05/09 18:39:33;;;;;;;4.50;2.70;;;;;;;8.80;51.86;101053.83;1790733;79;21168;-75
2021/05/09 18:42:01;;;;;;;5.78;2.52;;;;;;;8.72;52.09;101053.91;1777730;79;21181;-79
2021/05/09 18:44:29;;;;;;;3.42;2.10;;;;;;;8.67;52.36;101057.28;1773955;79;22056;-74
2021/05/09 18:46:58;;;;;;;4.67;2.15;;;;;;;8.58;52.54;101058.67;1791050;78;22904;-74
2021/05/09 18:49:27;;;;;;;4.12;2.20;;;;;;;8.52;52.53;101063.86;1772592;80;21054;-75
2021/05/09 18:51:54;;;;;;;3.55;1.92;;;;;;;8.46;53.12;101063.37;1761933;81;21152;-74
2021/05/09 18:54:22;;;;;;;4.80;2.17;;;;;;;8.38;53.60;101069.08;1731867;79;21180;-73
2021/05/09 18:56:52;;;;;;;3.72;2.17;;;;;;;8.33;54.04;101074.60;1798172;78;21185;-72
2021/05/09 18:59:21;;;;;;;4.42;2.00;;;;;;;8.27;54.38;101075.42;1794598;78;21690;-73
2021/05/09 19:01:48;;;;;;;19.35;11.75;;;;;;;8.18;54.47;101077.27;1754139;80;21150;-75
2021/05/09 19:04:16;;;;;;;20.48;12.95;;;;;;;8.13;54.22;101078.02;1781117;79;21176;-74
2021/05/09 19:06:44;;;;;;;17.23;12.00;;;;;;;8.10;54.03;101080.34;1750559;81;21188;-75
2021/05/09 19:09:12;;;;;;;17.98;11.05;;;;;;;8.10;54.10;101079.49;1793837;78;21858;-74
2021/05/09 19:11:40;;;;;;;14.70;9.95;;;;;;;8.08;54.31;101082.69;1786281;78;23052;-75
2021/05/09 19:14:08;;;;;;;17.30;12.70;;;;;;;8.04;54.42;101085.97;1785966;78;21160;-76
2021/05/09 19:16:35;;;;;;;29.98;20.92;;;;;;;8.01;54.66;101084.37;1797188;79;21195;-73
2021/05/09 19:19:03;;;;;;;29.52;21.20;;;;;;;7.94;55.23;101088.28;1788364;78;21568;-75
2021/05/09 19:21:31;;;;;;;21.75;15.90;;;;;;;7.84;55.96;101096.32;1783850;78;21216;-76
2021/05/09 19:23:59;;;;;;;16.50;12.75;;;;;;;7.72;56.48;101094.36;1762955;80;21906;-75
2021/05/09 19:26:27;;;;;;;16.27;10.53;;;;;;;7.58;56.77;101099.55;1787295;78;21173;-74
2021/05/09 19:28:55;;;;;;;13.58;10.55;;;;;;;7.45;57.08;101104.64;1750943;80;21168;-73
2021/05/09 19:31:24;;;;;;;13.10;10.00;;;;;;;7.36;57.30;101105.98;1761067;80;21167;-74
2021/05/09 19:33:51;;;;;;;13.03;9.70;;;;;;;7.27;57.33;101104.33;1783614;78;21796;-71
2021/05/09 19:36:20;;;;;;;14.95;9.98;;;;;;;7.21;57.44;101107.27;1758146;80;21157;-73
2021/05/09 19:38:48;;;;;;;16.45;9.63;;;;;;;7.12;57.46;101109.45;1769187;80;21145;-72
2021/05/09 19:41:16;;;;;;;13.90;9.05;;;;;;;7.04;57.45;101114.26;1767753;80;21188;-72
2021/05/09 19:43:43;;;;;;;6.85;5.87;;;;;;;6.96;57.37;101112.53;1769132;79;21203;-73
2021/05/09 19:46:11;;;;;;;8.13;5.08;;;;;;;6.90;57.44;101111.53;1776472;79;21181;-72
2021/05/09 19:48:41;;;;;;;4.55;3.62;;;;;;;6.82;57.46;101124.20;1770336;79;21183;-74
2021/05/09 19:51:10;;;;;;;5.65;3.75;;;;;;;6.76;57.53;101124.07;1770794;79;21535;-73
2021/05/09 19:53:38;;;;;;;4.85;2.87;;;;;;;6.71;57.80;101120.81;1772374;79;21177;-73
2021/05/09 19:56:06;;;;;;;4.03;2.90;;;;;;;6.66;57.92;101128.53;1775571;79;21183;-75
2021/05/09 19:58:33;;;;;;;3.98;2.80;;;;;;;6.62;58.06;101133.10;1769502;79;21160;-73
2021/05/09 20:01:03;;;;;;;5.72;3.37;;;;;;;6.59;58.12;101130.64;1765612;79;22443;-73
2021/05/09 20:03:31;;;;;;;6.12;3.70;;;;;;;6.54;58.15;101132.17;1768795;79;21196;-74
2021/05/09 20:05:59;;;;;;;6.53;3.65;;;;;;;6.51;58.25;101136.73;1800010;79;21163;-73
2021/05/09 20:08:26;;;;;;;6.83;4.83;;;;;;;6.46;58.35;101133.02;1776169;79;21168;-73
2021/05/09 20:10:55;;;;;;;10.00;6.20;;;;;;;6.44;58.59;101130.94;1772893;79;21537;-73
2021/05/09 20:13:23;;;;;;;9.60;4.90;;;;;;;6.38;58.88;101135.66;1773368;79;23080;-74
2021/05/09 20:15:52;;;;;;;5.70;4.20;;;;;;;6.33;59.25;101137.65;1769214;79;21222;-72
2021/05/09 20:18:21;;;;;;;7.58;4.85;;;;;;;6.27;59.58;101143.61;1771423;79;21163;-74
2021/05/09 20:20:53;;;;;;;10.75;5.97;;;;;;;6.23;59.77;101145.97;1783280;79;21185;-74
2021/05/09 20:23:18;;;;;;;11.15;7.42;;;;;;;6.19;59.82;101145.75;1783488;79;21142;-71
2021/05/09 20:25:45;;;;;;;19.60;11.43;;;;;;;6.19;59.81;101146.21;1780955;79;22135;-73
2021/05/09 20:28:13;;;;;;;12.47;8.30;;;;;;;6.19;60.04;101148.84;1790241;79;21150;-76
2021/05/09 20:30:41;;;;;;;16.25;11.97;;;;;;;6.20;60.24;101153.16;1777576;79;21174;-77
2021/05/09 20:33:09;;;;;;;30.72;20.40;;;;;;;6.16;60.32;101152.44;1777521;79;21193;-76
2021/05/09 20:35:36;;;;;;;34.98;23.20;;;;;;;6.12;60.40;101157.45;1769013;80;21131;-75
2021/05/09 20:38:04;;;;;;;28.65;20.72;;;;;;;6.09;60.52;101157.61;1769508;79;22508;-75
2021/05/09 20:40:33;;;;;;;32.05;22.82;;;;;;;6.04;60.65;101149.10;1769465;81;21190;-74
2021/05/09 20:43:01;;;;;;;32.28;20.32;;;;;;;6.01;60.90;101159.75;1769560;81;21155;-76
2021/05/09 20:45:29;;;;;;;28.47;19.37;;;;;;;5.97;61.10;101160.80;1769170;80;21159;-76
2021/05/09 20:47:56;;;;;;;24.02;17.23;;;;;;;5.90;61.31;101164.20;1766612;81;21180;-76
2021/05/09 20:50:24;;;;;;;22.27;15.30;;;;;;;5.86;61.55;101169.61;1770966;79;21975;-76
2021/05/09 20:52:52;;;;;;;20.55;13.88;;;;;;;5.81;61.77;101161.12;1768896;80;21168;-76
2021/05/09 20:55:22;;;;;;;15.45;10.75;;;;;;;5.78;62.02;101173.89;1767569;79;21171;-77
2021/05/09 20:57:50;;;;;;;14.47;9.35;;;;;;;5.73;62.31;101174.59;1769360;80;21657;-77
2021/05/09 21:00:18;;;;;;;13.88;8.78;;;;;;;5.67;62.58;101169.62;1769265;80;21203;-77
2021/05/09 21:02:45;;;;;;;10.55;7.22;;;;;;;5.60;62.74;101167.77;1771071;80;22055;-76
2021/05/09 21:05:13;;;;;;;9.95;6.67;;;;;;;5.54;62.80;101169.34;1769341;80;21533;-76
2021/05/09 21:07:41;;;;;;;9.60;6.67;;;;;;;5.47;62.84;101171.84;1772475;80;21169;-74
2021/05/09 21:10:10;;;;;;;9.85;7.05;;;;;;;5.41;62.93;101166.91;1771998;80;21195;-77
2021/05/09 21:12:37;;;;;;;11.65;7.70;;;;;;;5.37;62.92;101167.94;1746286;80;21182;-78
2021/05/09 21:15:07;;;;;;;7.12;5.15;;;;;;;5.34;62.90;101174.17;1771849;80;22071;-79
2021/05/09 21:17:34;;;;;;;8.00;5.30;;;;;;;5.33;63.07;101178.18;1771547;79;21240;-79
2021/05/09 21:20:03;;;;;;;8.43;5.53;;;;;;;5.29;63.31;101176.59;1771530;80;21383;-88
2021/05/09 21:22:31;;;;;;;10.85;6.85;;;;;;;5.23;63.41;101179.51;1770411;80;22123;-84
2021/05/09 21:24:59;;;;;;;13.43;7.37;;;;;;;5.15;63.52;101178.53;1762659;79;21579;-89
2021/05/09 21:27:27;;;;;;;11.63;7.70;;;;;;;5.11;63.57;101179.56;1774070;80;22479;-88
2021/05/09 21:29:58;;;;;;;15.20;9.20;;;;;;;5.06;63.68;101177.16;1752095;80;21574;-88
2021/05/09 21:32:27;;;;;;;12.93;8.30;;;;;;;5.01;63.72;101175.19;1765884;80;21182;-82
2021/05/09 21:34:55;;;;;;;13.88;8.90;;;;;;;4.97;63.94;101177.56;1767372;79;21162;-81
2021/05/09 21:37:22;;;;;;;14.47;8.85;;;;;;;4.93;64.17;101186.48;1770436;80;21050;-76
2021/05/09 21:39:50;;;;;;;15.30;9.70;;;;;;;4.86;64.45;101185.03;1762257;80;21862;-75
2021/05/09 21:42:18;;;;;;;16.17;9.48;;;;;;;4.79;64.75;101189.66;1786283;80;21277;-76
2021/05/09 21:44:45;;;;;;;18.52;10.20;;;;;;;4.73;64.90;101184.71;1790823;80;21570;-76
2021/05/09 21:47:13;;;;;;;19.30;10.15;;;;;;;4.71;65.02;101182.59;1771604;80;21061;-76
2021/05/09 21:49:41;;;;;;;18.23;11.08;;;;;;;4.72;65.13;101186.91;1788542;79;21179;-76
2021/05/09 21:52:08;;;;;;;23.45;12.58;;;;;;;4.70;65.19;101189.20;1790248;79;23815;-76
2021/05/09 21:54:37;;;;;;;29.23;15.68;;;;;;;4.67;65.21;101188.03;1790283;79;21157;-76
2021/05/09 21:57:05;;;;;;;29.87;15.75;;;;;;;4.65;65.13;101196.41;1791228;78;21145;-76
2021/05/09 21:59:34;;;;;;;27.52;14.95;;;;;;;4.62;65.15;101192.59;1791511;79;21600;-76
2021/05/09 22:02:02;;;;;;;26.25;15.18;;;;;;;4.60;65.13;101192.20;1767739;79;21337;-77
2021/05/09 22:04:30;;;;;;;27.40;15.68;;;;;;;4.56;65.20;101195.87;1751192;80;22494;-76
2021/05/09 22:06:57;;;;;;;25.40;15.08;;;;;;;4.55;65.30;101193.33;1743928;80;21155;-76
2021/05/09 22:09:24;;;;;;;27.62;14.58;;;;;;;4.54;65.34;101195.09;1745253;80;21092;-75
2021/05/09 22:11:53;;;;;;;28.32;15.13;;;;;;;4.52;65.41;101193.43;1752555;81;21092;-76
2021/05/09 22:14:21;;;;;;;29.92;16.77;;;;;;;4.48;65.47;101187.48;1743244;80;21072;-77